sensor_id;sensor_type;location;lat;lon;timestamp;P1;P2;P0
84223;PMS5003;74353;51.208;0.304;2024-01-30T00:01:07;23;15;
84223;PMS5003;74353;51.208;0.304;2024-01-30T00:03:33;17;17;
84223;PMS5003;74353;51.208;0.304;2024-01-30T00:06:02;20;20;
84223;PMS5003;74353;51.208;0.304;2024-01-30T00:08:28;34;30;
84223;PMS5003;74353;51.208;0.304;2024-01-30T00:10:54;31;25;
84223;PMS5003;74353;51.208;0.304;2024-01-30T00:13:19;13;13;
84223;PMS5003;74353;51.208;0.304;2024-01-30T00:15:46;23;23;
84223;PMS5003;74353;51.208;0.304;2024-01-30T00:18:13;36;17;
84223;PMS5003;74353;51.208;0.304;2024-01-30T00:20:40;29;25;
84223;PMS5003;74353;51.208;0.304;2024-01-30T00:23:08;15;15;
84223;PMS5003;74353;51.208;0.304;2024-01-30T00:25:33;15;15;
84223;PMS5003;74353;51.208;0.304;2024-01-30T00:28:00;26;26;
84223;PMS5003;74353;51.208;0.304;2024-01-30T00:30:26;23;20;
84223;PMS5003;74353;51.208;0.304;2024-01-30T00:32:53;27;24;
84223;PMS5003;74353;51.208;0.304;2024-01-30T00:35:20;12;12;
84223;PMS5003;74353;51.208;0.304;2024-01-30T00:37:47;20;20;
84223;PMS5003;74353;51.208;0.304;2024-01-30T00:40:15;16;16;
84223;PMS5003;74353;51.208;0.304;2024-01-30T00:42:40;26;26;
84223;PMS5003;74353;51.208;0.304;2024-01-30T00:45:11;24;21;
84223;PMS5003;74353;51.208;0.304;2024-01-30T00:47:33;23;19;
84223;PMS5003;74353;51.208;0.304;2024-01-30T00:50:00;19;19;
84223;PMS5003;74353;51.208;0.304;2024-01-30T00:52:25;14;14;
84223;PMS5003;74353;51.208;0.304;2024-01-30T00:54:50;32;26;
84223;PMS5003;74353;51.208;0.304;2024-01-30T00:57:16;19;19;
84223;PMS5003;74353;51.208;0.304;2024-01-30T00:59:42;18;18;
84223;PMS5003;74353;51.208;0.304;2024-01-30T01:02:08;15;15;
84223;PMS5003;74353;51.208;0.304;2024-01-30T01:04:36;7;7;
84223;PMS5003;74353;51.208;0.304;2024-01-30T01:07:02;29;26;
84223;PMS5003;74353;51.208;0.304;2024-01-30T01:09:28;21;21;
84223;PMS5003;74353;51.208;0.304;2024-01-30T01:11:54;30;27;
84223;PMS5003;74353;51.208;0.304;2024-01-30T01:14:20;21;20;
84223;PMS5003;74353;51.208;0.304;2024-01-30T01:16:49;24;24;
84223;PMS5003;74353;51.208;0.304;2024-01-30T01:19:17;8;8;
84223;PMS5003;74353;51.208;0.304;2024-01-30T01:21:43;20;18;
84223;PMS5003;74353;51.208;0.304;2024-01-30T01:24:09;25;23;
84223;PMS5003;74353;51.208;0.304;2024-01-30T01:26:35;25;21;
84223;PMS5003;74353;51.208;0.304;2024-01-30T01:29:02;16;16;
84223;PMS5003;74353;51.208;0.304;2024-01-30T01:31:28;21;18;
84223;PMS5003;74353;51.208;0.304;2024-01-30T01:33:54;18;18;
84223;PMS5003;74353;51.208;0.304;2024-01-30T01:36:21;12;12;
84223;PMS5003;74353;51.208;0.304;2024-01-30T01:38:50;18;18;
84223;PMS5003;74353;51.208;0.304;2024-01-30T01:41:16;10;10;
84223;PMS5003;74353;51.208;0.304;2024-01-30T01:43:47;24;16;
84223;PMS5003;74353;51.208;0.304;2024-01-30T01:46:07;10;10;
84223;PMS5003;74353;51.208;0.304;2024-01-30T01:48:32;10;10;
84223;PMS5003;74353;51.208;0.304;2024-01-30T01:51:00;27;15;
84223;PMS5003;74353;51.208;0.304;2024-01-30T01:53:26;15;14;
84223;PMS5003;74353;51.208;0.304;2024-01-30T01:55:52;8;8;
84223;PMS5003;74353;51.208;0.304;2024-01-30T01:58:20;7;7;
84223;PMS5003;74353;51.208;0.304;2024-01-30T02:00:45;7;7;
84223;PMS5003;74353;51.208;0.304;2024-01-30T02:03:10;6;6;
84223;PMS5003;74353;51.208;0.304;2024-01-30T02:05:38;6;6;
84223;PMS5003;74353;51.208;0.304;2024-01-30T02:08:04;6;6;
84223;PMS5003;74353;51.208;0.304;2024-01-30T02:10:30;4;4;
84223;PMS5003;74353;51.208;0.304;2024-01-30T02:12:55;3;3;
84223;PMS5003;74353;51.208;0.304;2024-01-30T02:15:21;3;3;
84223;PMS5003;74353;51.208;0.304;2024-01-30T02:17:47;1;1;
84223;PMS5003;74353;51.208;0.304;2024-01-30T02:20:12;0;0;
84223;PMS5003;74353;51.208;0.304;2024-01-30T02:22:40;4;4;
84223;PMS5003;74353;51.208;0.304;2024-01-30T02:25:05;1;1;
84223;PMS5003;74353;51.208;0.304;2024-01-30T02:27:33;4;4;
84223;PMS5003;74353;51.208;0.304;2024-01-30T02:30:03;0;0;
84223;PMS5003;74353;51.208;0.304;2024-01-30T02:32:28;1;1;
84223;PMS5003;74353;51.208;0.304;2024-01-30T02:34:54;0;0;
84223;PMS5003;74353;51.208;0.304;2024-01-30T02:37:19;0;0;
84223;PMS5003;74353;51.208;0.304;2024-01-30T02:39:48;0;0;
84223;PMS5003;74353;51.208;0.304;2024-01-30T02:42:21;1;1;
84223;PMS5003;74353;51.208;0.304;2024-01-30T02:44:49;0;0;
84223;PMS5003;74353;51.208;0.304;2024-01-30T02:47:14;1;1;
84223;PMS5003;74353;51.208;0.304;2024-01-30T02:49:39;2;2;
84223;PMS5003;74353;51.208;0.304;2024-01-30T02:52:05;2;2;
84223;PMS5003;74353;51.208;0.304;2024-01-30T02:54:33;14;6;
84223;PMS5003;74353;51.208;0.304;2024-01-30T02:57:02;0;0;
84223;PMS5003;74353;51.208;0.304;2024-01-30T02:59:30;0;0;
84223;PMS5003;74353;51.208;0.304;2024-01-30T03:01:56;0;0;
84223;PMS5003;74353;51.208;0.304;2024-01-30T03:04:22;0;0;
84223;PMS5003;74353;51.208;0.304;2024-01-30T03:06:48;0;0;
84223;PMS5003;74353;51.208;0.304;2024-01-30T03:09:15;1;1;
84223;PMS5003;74353;51.208;0.304;2024-01-30T03:11:39;0;0;
84223;PMS5003;74353;51.208;0.304;2024-01-30T03:14:05;0;0;
84223;PMS5003;74353;51.208;0.304;2024-01-30T03:16:30;0;0;
84223;PMS5003;74353;51.208;0.304;2024-01-30T03:18:59;0;0;
84223;PMS5003;74353;51.208;0.304;2024-01-30T03:21:25;0;0;
84223;PMS5003;74353;51.208;0.304;2024-01-30T03:23:53;1;1;
84223;PMS5003;74353;51.208;0.304;2024-01-30T03:26:18;0;0;
84223;PMS5003;74353;51.208;0.304;2024-01-30T03:28:45;0;0;
84223;PMS5003;74353;51.208;0.304;2024-01-30T03:31:13;0;0;
84223;PMS5003;74353;51.208;0.304;2024-01-30T03:33:37;0;0;
84223;PMS5003;74353;51.208;0.304;2024-01-30T03:36:04;0;0;
84223;PMS5003;74353;51.208;0.304;2024-01-30T03:38:30;0;0;
84223;PMS5003;74353;51.208;0.304;2024-01-30T03:40:57;1;1;
84223;PMS5003;74353;51.208;0.304;2024-01-30T03:43:23;0;0;
84223;PMS5003;74353;51.208;0.304;2024-01-30T03:45:49;1;1;
84223;PMS5003;74353;51.208;0.304;2024-01-30T03:48:20;1;1;
84223;PMS5003;74353;51.208;0.304;2024-01-30T03:50:39;1;1;
84223;PMS5003;74353;51.208;0.304;2024-01-30T03:53:06;0;0;
84223;PMS5003;74353;51.208;0.304;2024-01-30T03:55:32;0;0;
84223;PMS5003;74353;51.208;0.304;2024-01-30T03:58:00;0;0;
84223;PMS5003;74353;51.208;0.304;2024-01-30T04:00:26;0;0;
84223;PMS5003;74353;51.208;0.304;2024-01-30T04:02:56;7;0;
84223;PMS5003;74353;51.208;0.304;2024-01-30T04:05:21;1;1;
84223;PMS5003;74353;51.208;0.304;2024-01-30T04:07:46;0;0;
84223;PMS5003;74353;51.208;0.304;2024-01-30T04:10:12;0;0;
84223;PMS5003;74353;51.208;0.304;2024-01-30T04:12:38;0;0;
84223;PMS5003;74353;51.208;0.304;2024-01-30T04:15:03;0;0;
84223;PMS5003;74353;51.208;0.304;2024-01-30T04:17:29;0;0;
84223;PMS5003;74353;51.208;0.304;2024-01-30T04:19:58;1;1;
84223;PMS5003;74353;51.208;0.304;2024-01-30T04:22:23;0;0;
84223;PMS5003;74353;51.208;0.304;2024-01-30T04:24:48;0;0;
84223;PMS5003;74353;51.208;0.304;2024-01-30T04:27:13;0;0;
84223;PMS5003;74353;51.208;0.304;2024-01-30T04:29:38;1;1;
84223;PMS5003;74353;51.208;0.304;2024-01-30T04:32:05;0;0;
84223;PMS5003;74353;51.208;0.304;2024-01-30T04:34:30;0;0;
84223;PMS5003;74353;51.208;0.304;2024-01-30T04:36:55;0;0;
84223;PMS5003;74353;51.208;0.304;2024-01-30T04:39:21;0;0;
84223;PMS5003;74353;51.208;0.304;2024-01-30T04:41:48;6;0;
84223;PMS5003;74353;51.208;0.304;2024-01-30T04:44:15;0;0;
84223;PMS5003;74353;51.208;0.304;2024-01-30T04:46:40;1;1;
84223;PMS5003;74353;51.208;0.304;2024-01-30T04:49:06;0;0;
84223;PMS5003;74353;51.208;0.304;2024-01-30T04:51:32;2;2;
84223;PMS5003;74353;51.208;0.304;2024-01-30T04:53:57;0;0;
84223;PMS5003;74353;51.208;0.304;2024-01-30T04:56:25;0;0;
84223;PMS5003;74353;51.208;0.304;2024-01-30T04:58:52;6;6;
84223;PMS5003;74353;51.208;0.304;2024-01-30T05:01:18;1;1;
84223;PMS5003;74353;51.208;0.304;2024-01-30T05:03:43;0;0;
84223;PMS5003;74353;51.208;0.304;2024-01-30T05:06:09;0;0;
84223;PMS5003;74353;51.208;0.304;2024-01-30T05:08:34;0;0;
84223;PMS5003;74353;51.208;0.304;2024-01-30T05:11:00;0;0;
84223;PMS5003;74353;51.208;0.304;2024-01-30T05:13:25;0;0;
84223;PMS5003;74353;51.208;0.304;2024-01-30T05:15:50;2;2;
84223;PMS5003;74353;51.208;0.304;2024-01-30T05:18:15;0;0;
84223;PMS5003;74353;51.208;0.304;2024-01-30T05:20:41;4;1;
84223;PMS5003;74353;51.208;0.304;2024-01-30T05:23:10;2;2;
84223;PMS5003;74353;51.208;0.304;2024-01-30T05:25:37;0;0;
84223;PMS5003;74353;51.208;0.304;2024-01-30T05:28:02;0;0;
84223;PMS5003;74353;51.208;0.304;2024-01-30T05:30:29;1;1;
84223;PMS5003;74353;51.208;0.304;2024-01-30T05:32:54;0;0;
84223;PMS5003;74353;51.208;0.304;2024-01-30T05:35:20;0;0;
84223;PMS5003;74353;51.208;0.304;2024-01-30T05:37:47;1;1;
84223;PMS5003;74353;51.208;0.304;2024-01-30T05:40:13;10;2;
84223;PMS5003;74353;51.208;0.304;2024-01-30T05:42:40;2;2;
84223;PMS5003;74353;51.208;0.304;2024-01-30T05:45:06;0;0;
84223;PMS5003;74353;51.208;0.304;2024-01-30T05:47:34;7;7;
84223;PMS5003;74353;51.208;0.304;2024-01-30T05:49:59;1;1;
84223;PMS5003;74353;51.208;0.304;2024-01-30T05:52:24;0;0;
84223;PMS5003;74353;51.208;0.304;2024-01-30T05:54:50;2;2;
84223;PMS5003;74353;51.208;0.304;2024-01-30T05:57:16;2;2;
84223;PMS5003;74353;51.208;0.304;2024-01-30T05:59:42;1;1;
84223;PMS5003;74353;51.208;0.304;2024-01-30T06:02:10;0;0;
84223;PMS5003;74353;51.208;0.304;2024-01-30T06:04:35;2;2;
84223;PMS5003;74353;51.208;0.304;2024-01-30T06:07:00;2;2;
84223;PMS5003;74353;51.208;0.304;2024-01-30T06:09:26;1;1;
84223;PMS5003;74353;51.208;0.304;2024-01-30T06:11:51;4;4;
84223;PMS5003;74353;51.208;0.304;2024-01-30T06:14:19;0;0;
84223;PMS5003;74353;51.208;0.304;2024-01-30T06:16:45;2;2;
84223;PMS5003;74353;51.208;0.304;2024-01-30T06:19:10;1;1;
84223;PMS5003;74353;51.208;0.304;2024-01-30T06:21:38;0;0;
84223;PMS5003;74353;51.208;0.304;2024-01-30T06:24:06;0;0;
84223;PMS5003;74353;51.208;0.304;2024-01-30T06:26:32;3;3;
84223;PMS5003;74353;51.208;0.304;2024-01-30T06:28:58;0;0;
84223;PMS5003;74353;51.208;0.304;2024-01-30T06:31:23;2;2;
84223;PMS5003;74353;51.208;0.304;2024-01-30T06:33:49;0;0;
84223;PMS5003;74353;51.208;0.304;2024-01-30T06:36:14;1;1;
84223;PMS5003;74353;51.208;0.304;2024-01-30T06:38:40;2;2;
84223;PMS5003;74353;51.208;0.304;2024-01-30T06:41:06;0;0;
84223;PMS5003;74353;51.208;0.304;2024-01-30T06:43:33;1;1;
84223;PMS5003;74353;51.208;0.304;2024-01-30T06:46:00;0;0;
84223;PMS5003;74353;51.208;0.304;2024-01-30T06:48:24;2;1;
84223;PMS5003;74353;51.208;0.304;2024-01-30T06:50:52;0;0;
84223;PMS5003;74353;51.208;0.304;2024-01-30T06:53:17;0;0;
84223;PMS5003;74353;51.208;0.304;2024-01-30T06:55:43;0;0;
84223;PMS5003;74353;51.208;0.304;2024-01-30T06:58:08;0;0;
84223;PMS5003;74353;51.208;0.304;2024-01-30T07:00:35;1;1;
84223;PMS5003;74353;51.208;0.304;2024-01-30T07:03:02;0;0;
84223;PMS5003;74353;51.208;0.304;2024-01-30T07:05:31;0;0;
84223;PMS5003;74353;51.208;0.304;2024-01-30T07:07:58;0;0;
84223;PMS5003;74353;51.208;0.304;2024-01-30T07:10:23;0;0;
84223;PMS5003;74353;51.208;0.304;2024-01-30T07:12:51;0;0;
84223;PMS5003;74353;51.208;0.304;2024-01-30T07:15:16;0;0;
84223;PMS5003;74353;51.208;0.304;2024-01-30T07:17:44;0;0;
84223;PMS5003;74353;51.208;0.304;2024-01-30T07:20:12;0;0;
84223;PMS5003;74353;51.208;0.304;2024-01-30T07:22:37;2;2;
84223;PMS5003;74353;51.208;0.304;2024-01-30T07:25:05;0;0;
84223;PMS5003;74353;51.208;0.304;2024-01-30T07:27:30;1;1;
84223;PMS5003;74353;51.208;0.304;2024-01-30T07:29:55;1;1;
84223;PMS5003;74353;51.208;0.304;2024-01-30T07:32:21;0;0;
84223;PMS5003;74353;51.208;0.304;2024-01-30T07:34:48;0;0;
84223;PMS5003;74353;51.208;0.304;2024-01-30T07:37:15;0;0;
84223;PMS5003;74353;51.208;0.304;2024-01-30T07:39:41;0;0;
84223;PMS5003;74353;51.208;0.304;2024-01-30T07:42:08;0;0;
84223;PMS5003;74353;51.208;0.304;2024-01-30T07:44:33;0;0;
84223;PMS5003;74353;51.208;0.304;2024-01-30T07:46:59;0;0;
84223;PMS5003;74353;51.208;0.304;2024-01-30T07:49:25;0;0;
84223;PMS5003;74353;51.208;0.304;2024-01-30T07:51:52;0;0;
84223;PMS5003;74353;51.208;0.304;2024-01-30T07:54:18;0;0;
84223;PMS5003;74353;51.208;0.304;2024-01-30T07:56:44;1;1;
84223;PMS5003;74353;51.208;0.304;2024-01-30T07:59:09;4;1;
84223;PMS5003;74353;51.208;0.304;2024-01-30T08:01:35;1;1;
84223;PMS5003;74353;51.208;0.304;2024-01-30T08:04:00;1;1;
84223;PMS5003;74353;51.208;0.304;2024-01-30T08:06:26;1;1;
84223;PMS5003;74353;51.208;0.304;2024-01-30T08:08:53;2;2;
84223;PMS5003;74353;51.208;0.304;2024-01-30T08:11:19;0;0;
84223;PMS5003;74353;51.208;0.304;2024-01-30T08:13:44;3;3;
84223;PMS5003;74353;51.208;0.304;2024-01-30T08:16:09;3;3;
84223;PMS5003;74353;51.208;0.304;2024-01-30T08:18:35;1;1;
84223;PMS5003;74353;51.208;0.304;2024-01-30T08:21:01;0;0;
84223;PMS5003;74353;51.208;0.304;2024-01-30T08:23:26;2;2;
84223;PMS5003;74353;51.208;0.304;2024-01-30T08:25:51;4;4;
84223;PMS5003;74353;51.208;0.304;2024-01-30T08:28:18;0;0;
84223;PMS5003;74353;51.208;0.304;2024-01-30T08:30:47;1;1;
84223;PMS5003;74353;51.208;0.304;2024-01-30T08:33:15;2;2;
84223;PMS5003;74353;51.208;0.304;2024-01-30T08:35:41;2;2;
84223;PMS5003;74353;51.208;0.304;2024-01-30T08:38:08;0;0;
84223;PMS5003;74353;51.208;0.304;2024-01-30T08:40:33;0;0;
84223;PMS5003;74353;51.208;0.304;2024-01-30T08:43:04;1;1;
84223;PMS5003;74353;51.208;0.304;2024-01-30T08:45:29;2;2;
84223;PMS5003;74353;51.208;0.304;2024-01-30T08:47:55;1;1;
84223;PMS5003;74353;51.208;0.304;2024-01-30T08:50:20;3;3;
84223;PMS5003;74353;51.208;0.304;2024-01-30T08:52:48;1;1;
84223;PMS5003;74353;51.208;0.304;2024-01-30T08:55:15;4;4;
84223;PMS5003;74353;51.208;0.304;2024-01-30T08:57:43;4;4;
84223;PMS5003;74353;51.208;0.304;2024-01-30T09:00:09;1;1;
84223;PMS5003;74353;51.208;0.304;2024-01-30T09:02:34;1;1;
84223;PMS5003;74353;51.208;0.304;2024-01-30T09:04:59;2;2;
84223;PMS5003;74353;51.208;0.304;2024-01-30T09:07:25;4;4;
84223;PMS5003;74353;51.208;0.304;2024-01-30T09:09:52;0;0;
84223;PMS5003;74353;51.208;0.304;2024-01-30T09:12:18;3;3;
84223;PMS5003;74353;51.208;0.304;2024-01-30T09:14:44;2;2;
84223;PMS5003;74353;51.208;0.304;2024-01-30T09:17:11;0;0;
84223;PMS5003;74353;51.208;0.304;2024-01-30T09:19:40;2;2;
84223;PMS5003;74353;51.208;0.304;2024-01-30T09:22:06;3;3;
84223;PMS5003;74353;51.208;0.304;2024-01-30T09:24:31;12;10;
84223;PMS5003;74353;51.208;0.304;2024-01-30T09:26:57;12;10;
84223;PMS5003;74353;51.208;0.304;2024-01-30T09:29:23;7;7;
84223;PMS5003;74353;51.208;0.304;2024-01-30T09:31:49;10;7;
84223;PMS5003;74353;51.208;0.304;2024-01-30T09:34:14;8;8;
84223;PMS5003;74353;51.208;0.304;2024-01-30T09:36:42;4;4;
84223;PMS5003;74353;51.208;0.304;2024-01-30T09:39:08;6;6;
84223;PMS5003;74353;51.208;0.304;2024-01-30T09:41:35;1;1;
84223;PMS5003;74353;51.208;0.304;2024-01-30T09:44:01;0;0;
84223;PMS5003;74353;51.208;0.304;2024-01-30T09:46:26;0;0;
84223;PMS5003;74353;51.208;0.304;2024-01-30T09:48:57;2;2;
84223;PMS5003;74353;51.208;0.304;2024-01-30T09:51:17;1;1;
84223;PMS5003;74353;51.208;0.304;2024-01-30T09:53:42;0;0;
84223;PMS5003;74353;51.208;0.304;2024-01-30T09:56:08;0;0;
84223;PMS5003;74353;51.208;0.304;2024-01-30T09:58:35;0;0;
84223;PMS5003;74353;51.208;0.304;2024-01-30T10:01:03;1;1;
84223;PMS5003;74353;51.208;0.304;2024-01-30T10:03:28;1;1;
84223;PMS5003;74353;51.208;0.304;2024-01-30T10:05:54;0;0;
84223;PMS5003;74353;51.208;0.304;2024-01-30T10:08:22;5;5;
84223;PMS5003;74353;51.208;0.304;2024-01-30T10:10:47;7;7;
84223;PMS5003;74353;51.208;0.304;2024-01-30T10:13:12;3;3;
84223;PMS5003;74353;51.208;0.304;2024-01-30T10:15:38;3;3;
84223;PMS5003;74353;51.208;0.304;2024-01-30T10:18:06;0;0;
84223;PMS5003;74353;51.208;0.304;2024-01-30T10:20:33;0;0;
84223;PMS5003;74353;51.208;0.304;2024-01-30T10:22:58;0;0;
84223;PMS5003;74353;51.208;0.304;2024-01-30T10:25:23;5;0;
84223;PMS5003;74353;51.208;0.304;2024-01-30T10:27:52;0;0;
84223;PMS5003;74353;51.208;0.304;2024-01-30T10:30:17;0;0;
84223;PMS5003;74353;51.208;0.304;2024-01-30T10:32:43;0;0;
84223;PMS5003;74353;51.208;0.304;2024-01-30T10:35:10;0;0;
84223;PMS5003;74353;51.208;0.304;2024-01-30T10:37:39;1;1;
84223;PMS5003;74353;51.208;0.304;2024-01-30T10:40:05;0;0;
84223;PMS5003;74353;51.208;0.304;2024-01-30T10:42:31;0;0;
84223;PMS5003;74353;51.208;0.304;2024-01-30T10:45:00;0;0;
84223;PMS5003;74353;51.208;0.304;2024-01-30T10:47:25;0;0;
84223;PMS5003;74353;51.208;0.304;2024-01-30T10:49:48;2;2;
84223;PMS5003;74353;51.208;0.304;2024-01-30T10:52:14;0;0;
84223;PMS5003;74353;51.208;0.304;2024-01-30T10:54:39;2;2;
84223;PMS5003;74353;51.208;0.304;2024-01-30T10:57:05;0;0;
84223;PMS5003;74353;51.208;0.304;2024-01-30T10:59:30;0;0;
84223;PMS5003;74353;51.208;0.304;2024-01-30T11:02:01;0;0;
84223;PMS5003;74353;51.208;0.304;2024-01-30T11:04:27;1;1;
84223;PMS5003;74353;51.208;0.304;2024-01-30T11:06:53;0;0;
84223;PMS5003;74353;51.208;0.304;2024-01-30T11:09:18;1;1;
84223;PMS5003;74353;51.208;0.304;2024-01-30T11:11:49;0;0;
84223;PMS5003;74353;51.208;0.304;2024-01-30T11:14:11;0;0;
84223;PMS5003;74353;51.208;0.304;2024-01-30T11:16:39;0;0;
84223;PMS5003;74353;51.208;0.304;2024-01-30T11:19:04;1;1;
84223;PMS5003;74353;51.208;0.304;2024-01-30T11:21:29;0;0;
84223;PMS5003;74353;51.208;0.304;2024-01-30T11:23:57;1;1;
84223;PMS5003;74353;51.208;0.304;2024-01-30T11:26:23;1;1;
84223;PMS5003;74353;51.208;0.304;2024-01-30T11:28:52;0;0;
84223;PMS5003;74353;51.208;0.304;2024-01-30T11:31:14;0;0;
84223;PMS5003;74353;51.208;0.304;2024-01-30T11:33:41;0;0;
84223;PMS5003;74353;51.208;0.304;2024-01-30T11:36:08;0;0;
84223;PMS5003;74353;51.208;0.304;2024-01-30T11:38:34;0;0;
84223;PMS5003;74353;51.208;0.304;2024-01-30T11:41:02;1;1;
84223;PMS5003;74353;51.208;0.304;2024-01-30T11:43:28;1;1;
84223;PMS5003;74353;51.208;0.304;2024-01-30T11:45:54;1;1;
84223;PMS5003;74353;51.208;0.304;2024-01-30T11:48:19;5;5;
84223;PMS5003;74353;51.208;0.304;2024-01-30T11:50:44;8;0;
84223;PMS5003;74353;51.208;0.304;2024-01-30T11:53:12;0;0;
84223;PMS5003;74353;51.208;0.304;2024-01-30T11:55:37;2;2;
84223;PMS5003;74353;51.208;0.304;2024-01-30T11:58:03;0;0;
84223;PMS5003;74353;51.208;0.304;2024-01-30T12:00:29;0;0;
84223;PMS5003;74353;51.208;0.304;2024-01-30T12:02:57;1;1;
84223;PMS5003;74353;51.208;0.304;2024-01-30T12:05:25;0;0;
84223;PMS5003;74353;51.208;0.304;2024-01-30T12:07:50;2;2;
84223;PMS5003;74353;51.208;0.304;2024-01-30T12:10:16;0;0;
84223;PMS5003;74353;51.208;0.304;2024-01-30T12:12:42;3;2;
84223;PMS5003;74353;51.208;0.304;2024-01-30T12:15:08;2;2;
84223;PMS5003;74353;51.208;0.304;2024-01-30T12:17:33;1;1;
84223;PMS5003;74353;51.208;0.304;2024-01-30T12:20:08;0;0;
84223;PMS5003;74353;51.208;0.304;2024-01-30T12:22:36;1;1;
84223;PMS5003;74353;51.208;0.304;2024-01-30T12:25:04;0;0;
84223;PMS5003;74353;51.208;0.304;2024-01-30T12:27:29;6;6;
84223;PMS5003;74353;51.208;0.304;2024-01-30T12:29:57;5;5;
84223;PMS5003;74353;51.208;0.304;2024-01-30T12:32:22;3;3;
84223;PMS5003;74353;51.208;0.304;2024-01-30T12:34:49;4;4;
84223;PMS5003;74353;51.208;0.304;2024-01-30T12:37:17;2;2;
84223;PMS5003;74353;51.208;0.304;2024-01-30T12:39:49;4;1;
84223;PMS5003;74353;51.208;0.304;2024-01-30T12:42:18;2;2;
84223;PMS5003;74353;51.208;0.304;2024-01-30T12:44:42;0;0;
84223;PMS5003;74353;51.208;0.304;2024-01-30T12:47:08;0;0;
84223;PMS5003;74353;51.208;0.304;2024-01-30T12:49:34;0;0;
84223;PMS5003;74353;51.208;0.304;2024-01-30T12:52:02;2;2;
84223;PMS5003;74353;51.208;0.304;2024-01-30T12:54:28;1;1;
84223;PMS5003;74353;51.208;0.304;2024-01-30T12:56:53;0;0;
84223;PMS5003;74353;51.208;0.304;2024-01-30T12:59:18;0;0;
84223;PMS5003;74353;51.208;0.304;2024-01-30T13:01:44;3;2;
84223;PMS5003;74353;51.208;0.304;2024-01-30T13:04:11;0;0;
84223;PMS5003;74353;51.208;0.304;2024-01-30T13:06:40;0;0;
84223;PMS5003;74353;51.208;0.304;2024-01-30T13:09:06;0;0;
84223;PMS5003;74353;51.208;0.304;2024-01-30T13:11:33;1;1;
84223;PMS5003;74353;51.208;0.304;2024-01-30T13:13:59;1;1;
84223;PMS5003;74353;51.208;0.304;2024-01-30T13:16:25;1;1;
84223;PMS5003;74353;51.208;0.304;2024-01-30T13:18:53;1;1;
84223;PMS5003;74353;51.208;0.304;2024-01-30T13:21:21;1;1;
84223;PMS5003;74353;51.208;0.304;2024-01-30T13:23:47;0;0;
84223;PMS5003;74353;51.208;0.304;2024-01-30T13:26:15;0;0;
84223;PMS5003;74353;51.208;0.304;2024-01-30T13:28:40;0;0;
84223;PMS5003;74353;51.208;0.304;2024-01-30T13:31:05;1;1;
84223;PMS5003;74353;51.208;0.304;2024-01-30T13:33:30;0;0;
84223;PMS5003;74353;51.208;0.304;2024-01-30T13:35:58;0;0;
84223;PMS5003;74353;51.208;0.304;2024-01-30T13:38:23;0;0;
84223;PMS5003;74353;51.208;0.304;2024-01-30T13:40:49;0;0;
84223;PMS5003;74353;51.208;0.304;2024-01-30T13:43:14;0;0;
84223;PMS5003;74353;51.208;0.304;2024-01-30T13:45:47;1;1;
84223;PMS5003;74353;51.208;0.304;2024-01-30T13:48:08;1;1;
84223;PMS5003;74353;51.208;0.304;2024-01-30T13:50:34;1;1;
84223;PMS5003;74353;51.208;0.304;2024-01-30T13:53:02;0;0;
84223;PMS5003;74353;51.208;0.304;2024-01-30T13:55:28;0;0;
84223;PMS5003;74353;51.208;0.304;2024-01-30T13:57:54;0;0;
84223;PMS5003;74353;51.208;0.304;2024-01-30T14:00:19;3;2;
84223;PMS5003;74353;51.208;0.304;2024-01-30T14:02:48;1;1;
84223;PMS5003;74353;51.208;0.304;2024-01-30T14:05:15;2;2;
84223;PMS5003;74353;51.208;0.304;2024-01-30T14:07:43;1;1;
84223;PMS5003;74353;51.208;0.304;2024-01-30T14:10:09;4;4;
84223;PMS5003;74353;51.208;0.304;2024-01-30T14:12:35;1;1;
84223;PMS5003;74353;51.208;0.304;2024-01-30T14:15:02;3;3;
84223;PMS5003;74353;51.208;0.304;2024-01-30T14:17:28;1;1;
84223;PMS5003;74353;51.208;0.304;2024-01-30T14:19:56;2;2;
84223;PMS5003;74353;51.208;0.304;2024-01-30T14:22:21;4;4;
84223;PMS5003;74353;51.208;0.304;2024-01-30T14:24:50;2;2;
84223;PMS5003;74353;51.208;0.304;2024-01-30T14:27:15;3;3;
84223;PMS5003;74353;51.208;0.304;2024-01-30T14:29:41;1;1;
84223;PMS5003;74353;51.208;0.304;2024-01-30T14:32:09;1;1;
84223;PMS5003;74353;51.208;0.304;2024-01-30T14:34:36;4;4;
84223;PMS5003;74353;51.208;0.304;2024-01-30T14:37:03;0;0;
84223;PMS5003;74353;51.208;0.304;2024-01-30T14:39:29;4;4;
84223;PMS5003;74353;51.208;0.304;2024-01-30T14:41:57;4;4;
84223;PMS5003;74353;51.208;0.304;2024-01-30T14:44:24;2;2;
84223;PMS5003;74353;51.208;0.304;2024-01-30T14:46:52;3;3;
84223;PMS5003;74353;51.208;0.304;2024-01-30T14:49:18;3;3;
84223;PMS5003;74353;51.208;0.304;2024-01-30T14:51:44;0;0;
84223;PMS5003;74353;51.208;0.304;2024-01-30T14:54:10;5;5;
84223;PMS5003;74353;51.208;0.304;2024-01-30T14:56:36;2;2;
84223;PMS5003;74353;51.208;0.304;2024-01-30T14:59:12;4;4;
84223;PMS5003;74353;51.208;0.304;2024-01-30T15:01:37;1;1;
84223;PMS5003;74353;51.208;0.304;2024-01-30T15:04:04;3;3;
84223;PMS5003;74353;51.208;0.304;2024-01-30T15:06:32;1;1;
84223;PMS5003;74353;51.208;0.304;2024-01-30T15:08:57;0;0;
84223;PMS5003;74353;51.208;0.304;2024-01-30T15:11:23;1;1;
84223;PMS5003;74353;51.208;0.304;2024-01-30T15:13:53;0;0;
84223;PMS5003;74353;51.208;0.304;2024-01-30T15:16:21;6;2;
84223;PMS5003;74353;51.208;0.304;2024-01-30T15:18:50;0;0;
84223;PMS5003;74353;51.208;0.304;2024-01-30T15:21:15;3;2;
84223;PMS5003;74353;51.208;0.304;2024-01-30T15:23:40;0;0;
84223;PMS5003;74353;51.208;0.304;2024-01-30T15:26:06;1;1;
84223;PMS5003;74353;51.208;0.304;2024-01-30T15:28:34;2;2;
84223;PMS5003;74353;51.208;0.304;2024-01-30T15:31:02;2;2;
84223;PMS5003;74353;51.208;0.304;2024-01-30T15:33:28;2;2;
84223;PMS5003;74353;51.208;0.304;2024-01-30T15:35:54;1;1;
84223;PMS5003;74353;51.208;0.304;2024-01-30T15:38:21;0;0;
84223;PMS5003;74353;51.208;0.304;2024-01-30T15:40:47;0;0;
84223;PMS5003;74353;51.208;0.304;2024-01-30T15:43:13;3;3;
84223;PMS5003;74353;51.208;0.304;2024-01-30T15:45:40;0;0;
84223;PMS5003;74353;51.208;0.304;2024-01-30T15:48:05;2;2;
84223;PMS5003;74353;51.208;0.304;2024-01-30T15:50:33;1;1;
84223;PMS5003;74353;51.208;0.304;2024-01-30T15:52:59;3;3;
84223;PMS5003;74353;51.208;0.304;2024-01-30T15:55:24;0;0;
84223;PMS5003;74353;51.208;0.304;2024-01-30T15:57:50;3;3;
84223;PMS5003;74353;51.208;0.304;2024-01-30T16:00:16;6;6;
84223;PMS5003;74353;51.208;0.304;2024-01-30T16:02:43;4;4;
84223;PMS5003;74353;51.208;0.304;2024-01-30T16:05:09;2;2;
84223;PMS5003;74353;51.208;0.304;2024-01-30T16:07:34;1;1;
84223;PMS5003;74353;51.208;0.304;2024-01-30T16:10:00;2;2;
84223;PMS5003;74353;51.208;0.304;2024-01-30T16:12:27;4;4;
84223;PMS5003;74353;51.208;0.304;2024-01-30T16:14:52;1;1;
84223;PMS5003;74353;51.208;0.304;2024-01-30T16:17:18;2;2;
84223;PMS5003;74353;51.208;0.304;2024-01-30T16:19:43;2;2;
84223;PMS5003;74353;51.208;0.304;2024-01-30T16:22:09;2;2;
84223;PMS5003;74353;51.208;0.304;2024-01-30T16:24:35;1;1;
84223;PMS5003;74353;51.208;0.304;2024-01-30T16:27:01;1;0;
84223;PMS5003;74353;51.208;0.304;2024-01-30T16:29:28;3;3;
84223;PMS5003;74353;51.208;0.304;2024-01-30T16:31:54;0;0;
84223;PMS5003;74353;51.208;0.304;2024-01-30T16:34:19;2;2;
84223;PMS5003;74353;51.208;0.304;2024-01-30T16:36:45;1;1;
84223;PMS5003;74353;51.208;0.304;2024-01-30T16:39:10;2;2;
84223;PMS5003;74353;51.208;0.304;2024-01-30T16:41:36;1;1;